Cruise Smeralda — IBNQ — position and weather

sailwx.info

Track history (hours):
 
Tides and Currents Weather Stations Pressure Air Temp Water Temp Dewpoint Dewpoint Depression Visibility Wind Speed Wind Dir Waves Ship Positions

Cruise Smeralda

Last reported at 2020-Sep-19 19:00 UTC. Time now 2020-Sep-19 19:29 UTC.
Position N 43°35' E 010°18'.

Length 200 m; draft 6.6 m.

Type: Passenger vessel. MMSI: 247343200.

Date/timePositionNaut miles runAvg speedWind from/ knotsBaromVisibWave heightAir tempDewpointWater temp
2020-Sep-19 19:00N 43°35' E 010°18'0 0.0
2020-Sep-19 17:30N 43°35' E 010°18'0 0.0
2020-Sep-19 16:30N 43°35' E 010°18'3513.9
2020-Sep-19 14:00N 43°00' E 010°25'6321.0
2020-Sep-19 11:00N 42°03' E 010°60'24120.9
2020-Sep-18 23:30N 38°25' E 013°14'1918.9
2020-Sep-18 22:30N 38°08' E 013°24'2 0.7
2020-Sep-18 19:59N 38°08' E 013°22'0 0.0
2020-Sep-18 18:59N 38°08' E 013°22'0 0.0
2020-Sep-18 17:59N 38°08' E 013°22'29 9.8
2020-Sep-18 15:00N 38°34' E 013°05'28921.4
2020-Sep-18 01:30N 42°57' E 010°27'1121.7
2020-Sep-18 01:00N 43°08' E 010°22'27 4.9
2020-Sep-17 19:29N 43°35' E 010°18'0 0.0
2020-Sep-17 17:00N 43°35' E 010°18'11 7.4
2020-Sep-17 15:30N 43°24' E 010°14'1817.9
2020-Sep-17 14:31N 43°07' E 010°22'4919.5
2020-Sep-17 12:00N 42°22' E 010°48'24520.0
2020-Sep-16 23:44N 38°39' E 013°02'3510.6
2020-Sep-16 20:28N 38°08' E 013°22'0 0.0
2020-Sep-16 18:28N 38°08' E 013°22'0 0.0
2020-Sep-16 17:58N 38°08' E 013°22'0 0.0
2020-Sep-16 16:55N 38°08' E 013°22'0 0.0
2020-Sep-16 16:28N 38°08' E 013°22'31719.3
2020-Sep-15 23:59N 42°56' E 010°27'1121.3
2020-Sep-15 23:30N 43°06' E 010°22'2121.1
2020-Sep-15 22:30N 43°26' E 010°13'9 4.6
2020-Sep-15 20:29N 43°35' E 010°18'30 4.7
2020-Sep-15 14:01N 43°04' E 010°22'918.5
2020-Sep-15 13:30N 42°56' E 010°27'123 2.6
2020-Sep-13 14:30N 40°58' E 009°40'80 6.3
2020-Sep-13 01:50N 41°44' E 011°06'  
2020-Sep-10 11:16N 41°35' E 010°47'920.5
2020-Sep-10 10:50N 41°41' E 010°57'4 0.4
2020-Sep-10 01:30N 41°42' E 011°02'5218.2
2020-Sep-09 22:40N 41°12' E 010°07'  
Track history (hours):
 
Tides and Currents Weather Stations Pressure Air Temp Water Temp Dewpoint Dewpoint Depression Visibility Wind Speed Wind Dir Waves Ship Positions

Cruise Smeralda

Last reported at 2020-Sep-19 19:00 UTC. Time now 2020-Sep-19 19:29 UTC.
Position N 43°35' E 010°18'.

Length 200 m; draft 6.6 m.

Type: Passenger vessel. MMSI: 247343200.

Date/timePositionNaut miles runAvg speedWind from/ knotsBaromVisibWave heightAir tempDewpointWater temp
2020-Sep-19 19:00N 43°35' E 010°18'0 0.0
2020-Sep-19 17:30N 43°35' E 010°18'0 0.0
2020-Sep-19 16:30N 43°35' E 010°18'3513.9
2020-Sep-19 14:00N 43°00' E 010°25'6321.0
2020-Sep-19 11:00N 42°03' E 010°60'24120.9
2020-Sep-18 23:30N 38°25' E 013°14'1918.9
2020-Sep-18 22:30N 38°08' E 013°24'2 0.7
2020-Sep-18 19:59N 38°08' E 013°22'0 0.0
2020-Sep-18 18:59N 38°08' E 013°22'0 0.0
2020-Sep-18 17:59N 38°08' E 013°22'29 9.8
2020-Sep-18 15:00N 38°34' E 013°05'28921.4
2020-Sep-18 01:30N 42°57' E 010°27'1121.7
2020-Sep-18 01:00N 43°08' E 010°22'27 4.9
2020-Sep-17 19:29N 43°35' E 010°18'0 0.0
2020-Sep-17 17:00N 43°35' E 010°18'11 7.4
2020-Sep-17 15:30N 43°24' E 010°14'1817.9
2020-Sep-17 14:31N 43°07' E 010°22'4919.5
2020-Sep-17 12:00N 42°22' E 010°48'24520.0
2020-Sep-16 23:44N 38°39' E 013°02'3510.6
2020-Sep-16 20:28N 38°08' E 013°22'0 0.0
2020-Sep-16 18:28N 38°08' E 013°22'0 0.0
2020-Sep-16 17:58N 38°08' E 013°22'0 0.0
2020-Sep-16 16:55N 38°08' E 013°22'0 0.0
2020-Sep-16 16:28N 38°08' E 013°22'31719.3
2020-Sep-15 23:59N 42°56' E 010°27'1121.3
2020-Sep-15 23:30N 43°06' E 010°22'2121.1
2020-Sep-15 22:30N 43°26' E 010°13'9 4.6
2020-Sep-15 20:29N 43°35' E 010°18'30 4.7
2020-Sep-15 14:01N 43°04' E 010°22'918.5
2020-Sep-15 13:30N 42°56' E 010°27'123 2.6
2020-Sep-13 14:30N 40°58' E 009°40'80 6.3
2020-Sep-13 01:50N 41°44' E 011°06'  
2020-Sep-10 11:16N 41°35' E 010°47'920.5
2020-Sep-10 10:50N 41°41' E 010°57'4 0.4
2020-Sep-10 01:30N 41°42' E 011°02'5218.2
2020-Sep-09 22:40N 41°12' E 010°07'  

Dump ship's entire track history